createdAt,value
2019-01-06T00:01:48.673Z,9.90
2019-01-06T00:04:44.744Z,17.80
2019-01-06T00:07:32.615Z,15.23
2019-01-06T00:10:19.749Z,10.37
2019-01-06T00:13:17.427Z,13.00
2019-01-06T00:16:11.150Z,6.50
2019-01-06T00:18:58.007Z,12.57
2019-01-06T00:21:45.917Z,14.83
2019-01-06T00:24:32.489Z,8.57
2019-01-06T00:27:19.347Z,12.07
2019-01-06T00:30:07.226Z,14.13
2019-01-06T00:32:53.760Z,12.70
2019-01-06T00:35:39.670Z,11.13
2019-01-06T00:38:41.015Z,12.20
2019-01-06T00:41:32.070Z,14.93
2019-01-06T00:44:19.006Z,14.57
2019-01-06T00:47:05.923Z,13.47
2019-01-06T00:49:59.992Z,10.43
2019-01-06T00:52:46.802Z,20.40
2019-01-06T00:55:31.492Z,15.23
2019-01-06T00:58:18.212Z,19.20
2019-01-06T01:01:08.902Z,14.83
2019-01-06T01:03:55.801Z,16.00
2019-01-06T01:06:43.752Z,12.53
2019-01-06T01:09:47.520Z,19.63
2019-01-06T01:12:34.353Z,11.60
2019-01-06T01:15:21.371Z,22.13
2019-01-06T01:18:17.908Z,18.87
2019-01-06T01:20:56.445Z,15.67
2019-01-06T01:23:43.294Z,15.50
2019-01-06T01:26:30.148Z,23.43
2019-01-06T01:29:17.088Z,24.40
2019-01-06T01:32:08.110Z,12.03
2019-01-06T01:35:07.460Z,19.57
2019-01-06T01:37:54.150Z,14.90
2019-01-06T01:40:41.177Z,16.73
2019-01-06T01:43:35.119Z,26.57
2019-01-06T01:46:19.356Z,14.20
2019-01-06T01:49:07.246Z,14.10
2019-01-06T01:52:01.179Z,20.73
2019-01-06T01:55:01.084Z,17.93
2019-01-06T01:57:55.376Z,17.70
2019-01-06T02:00:35.406Z,18.20
2019-01-06T02:03:22.550Z,14.43
2019-01-06T02:06:06.556Z,19.90
2019-01-06T02:08:55.865Z,13.00
2019-01-06T02:11:46.877Z,13.60
2019-01-06T02:14:46.675Z,18.87
2019-01-06T02:17:33.210Z,31.80
2019-01-06T02:20:21.427Z,26.20
2019-01-06T02:23:15.235Z,24.73
2019-01-06T02:26:21.617Z,14.77
2019-01-06T02:29:07.752Z,17.83
2019-01-06T02:31:55.663Z,31.73
2019-01-06T02:34:46.874Z,19.13
2019-01-06T02:37:39.126Z,20.37
2019-01-06T02:40:21.304Z,14.47
2019-01-06T02:43:07.771Z,17.40
2019-01-06T02:45:54.160Z,33.80
2019-01-06T02:48:57.261Z,20.10
2019-01-06T02:52:00.248Z,26.87
2019-01-06T02:54:46.452Z,15.50
2019-01-06T02:57:28.802Z,15.87
2019-01-06T03:00:15.390Z,14.73
2019-01-06T03:03:09.308Z,19.40
2019-01-06T03:06:09.300Z,24.07
2019-01-06T03:09:03.083Z,17.63
2019-01-06T03:11:50.966Z,15.63
2019-01-06T03:14:39.096Z,14.33
2019-01-06T03:17:25.862Z,21.27
2019-01-06T03:20:13.722Z,14.67
2019-01-06T03:23:04.426Z,14.47
2019-01-06T03:25:51.135Z,15.03
2019-01-06T03:28:33.232Z,17.87
2019-01-06T03:31:23.553Z,13.00
2019-01-06T03:34:22.144Z,13.10
2019-01-06T03:37:08.759Z,8.83
2019-01-06T03:39:55.405Z,17.50
2019-01-06T03:42:46.347Z,10.80
2019-01-06T03:45:32.928Z,16.73
2019-01-06T03:48:22.001Z,13.67
2019-01-06T03:51:08.691Z,22.53
2019-01-06T03:53:55.455Z,18.50
2019-01-06T03:56:42.394Z,13.60
2019-01-06T03:59:28.975Z,17.03
2019-01-06T04:02:20.879Z,18.23
2019-01-06T04:05:14.285Z,13.43
2019-01-06T04:08:01.026Z,16.20
2019-01-06T04:11:01.330Z,20.40
2019-01-06T04:14:01.199Z,12.67
2019-01-06T04:16:57.737Z,20.53
2019-01-06T04:20:04.444Z,20.00
2019-01-06T04:22:51.435Z,22.60
2019-01-06T04:25:37.731Z,10.93
2019-01-06T04:28:24.011Z,14.23
2019-01-06T04:31:24.635Z,23.60
2019-01-06T04:34:11.226Z,16.80
2019-01-06T04:36:57.811Z,17.63
2019-01-06T04:39:45.696Z,22.77
2019-01-06T04:42:29.291Z,21.80
2019-01-06T04:45:11.772Z,13.97
2019-01-06T04:48:17.919Z,15.70
2019-01-06T04:51:04.030Z,17.20
2019-01-06T04:53:51.932Z,24.63
2019-01-06T04:56:38.544Z,15.27
2019-01-06T04:59:25.146Z,19.20
2019-01-06T05:02:11.189Z,16.97
2019-01-06T05:04:58.019Z,22.20
2019-01-06T05:07:49.318Z,22.00
2019-01-06T05:10:35.825Z,36.27
2019-01-06T05:13:33.472Z,16.13
2019-01-06T05:16:27.249Z,24.67
2019-01-06T05:19:21.222Z,26.47
2019-01-06T05:22:15.490Z,30.27
2019-01-06T05:25:12.379Z,16.73
2019-01-06T05:27:56.176Z,20.37
2019-01-06T05:30:50.787Z,19.73
2019-01-06T05:33:37.526Z,17.57
2019-01-06T05:36:24.337Z,30.90
2019-01-06T05:39:12.209Z,21.53
2019-01-06T05:42:09.288Z,26.03
2019-01-06T05:45:06.341Z,26.97
2019-01-06T05:47:53.083Z,27.40
2019-01-06T05:50:34.920Z,29.23
2019-01-06T05:53:13.567Z,32.50
2019-01-06T05:56:04.531Z,25.03
2019-01-06T05:59:10.669Z,27.20
2019-01-06T06:02:06.852Z,26.50
2019-01-06T06:04:51.207Z,29.40
2019-01-06T06:07:37.743Z,27.43
2019-01-06T06:10:19.523Z,21.60
2019-01-06T06:13:03.535Z,27.50
2019-01-06T06:15:50.427Z,25.03
2019-01-06T06:18:47.645Z,35.67
2019-01-06T06:21:25.228Z,25.33
2019-01-06T06:24:22.252Z,34.87
2019-01-06T06:27:15.825Z,27.00
2019-01-06T06:29:58.803Z,25.23
2019-01-06T06:32:45.534Z,24.27
2019-01-06T06:35:32.103Z,23.10
2019-01-06T06:38:18.643Z,27.33
2019-01-06T06:41:05.020Z,23.47
2019-01-06T06:43:48.794Z,27.93
2019-01-06T06:46:31.228Z,26.60
2019-01-06T06:49:37.477Z,26.77
2019-01-06T06:52:34.090Z,27.10
2019-01-06T06:55:27.752Z,22.33
2019-01-06T06:58:37.199Z,29.43
2019-01-06T07:01:36.236Z,23.73
2019-01-06T07:04:26.983Z,40.00
2019-01-06T07:07:23.948Z,29.87
2019-01-06T07:10:06.147Z,27.53
2019-01-06T07:12:47.208Z,29.07
2019-01-06T07:15:38.199Z,23.47
2019-01-06T07:18:34.842Z,31.60
2019-01-06T07:21:22.842Z,27.90
2019-01-06T07:24:25.919Z,29.90
2019-01-06T07:27:21.576Z,30.83
2019-01-06T07:30:09.472Z,24.30
2019-01-06T07:33:00.848Z,26.07
2019-01-06T07:36:07.307Z,39.30
2019-01-06T07:39:04.110Z,25.67
2019-01-06T07:41:57.323Z,27.73
2019-01-06T07:44:57.607Z,30.77
2019-01-06T07:47:44.491Z,34.77
2019-01-06T07:50:38.499Z,30.63
2019-01-06T07:53:26.472Z,28.23
2019-01-06T07:56:13.307Z,28.40
2019-01-06T07:59:00.427Z,40.93
2019-01-06T08:01:48.468Z,35.70
2019-01-06T08:04:28.073Z,45.60
2019-01-06T08:07:14.715Z,48.73
2019-01-06T08:10:01.799Z,39.23
2019-01-06T08:12:58.626Z,45.70
2019-01-06T08:16:01.763Z,43.67
2019-01-06T08:18:47.827Z,36.53
2019-01-06T08:21:34.723Z,48.10
2019-01-06T08:24:24.857Z,41.40
2019-01-06T08:27:11.584Z,51.40
2019-01-06T08:29:54.791Z,50.47
2019-01-06T08:32:41.307Z,48.97
2019-01-06T08:35:35.260Z,52.03
2019-01-06T08:38:41.611Z,49.70
2019-01-06T08:41:27.738Z,49.80
2019-01-06T08:44:14.115Z,47.47
2019-01-06T08:47:15.575Z,47.80
2019-01-06T08:49:55.684Z,45.23
2019-01-06T08:52:39.944Z,72.37
2019-01-06T08:55:39.213Z,68.43
2019-01-06T08:58:26.058Z,41.70
2019-01-06T09:01:12.980Z,56.73
2019-01-06T09:04:03.935Z,52.23
2019-01-06T09:06:58.381Z,53.63
2019-01-06T09:09:45.799Z,52.67
2019-01-06T09:12:46.189Z,51.00
2019-01-06T09:15:33.012Z,54.43
2019-01-06T09:18:33.507Z,48.97
2019-01-06T09:21:19.061Z,65.63
2019-01-06T09:23:59.758Z,57.87
2019-01-06T09:26:47.053Z,63.53
2019-01-06T09:29:41.785Z,63.43
2019-01-06T09:32:36.560Z,61.73
2019-01-06T09:35:23.496Z,52.77
2019-01-06T09:38:17.392Z,57.40
2019-01-06T09:41:04.562Z,70.73
2019-01-06T09:43:58.582Z,61.77
2019-01-06T09:46:55.822Z,73.73
2019-01-06T09:49:46.886Z,60.77
2019-01-06T09:52:33.862Z,49.33
2019-01-06T09:55:21.754Z,53.67
2019-01-06T09:58:09.828Z,52.73
2019-01-06T10:01:03.503Z,55.30
2019-01-06T10:03:54.179Z,52.27
2019-01-06T10:06:46.496Z,47.23
2019-01-06T10:09:33.442Z,49.03
2019-01-06T10:12:25.652Z,41.50
2019-01-06T10:15:13.604Z,48.50
2019-01-06T10:18:16.644Z,39.70
2019-01-06T10:20:58.685Z,40.90
2019-01-06T10:23:45.636Z,38.37
2019-01-06T10:26:32.427Z,35.10
2019-01-06T10:29:23.824Z,36.87
2019-01-06T10:32:10.476Z,32.47
2019-01-06T10:34:57.870Z,36.07
2019-01-06T10:37:44.367Z,43.37
2019-01-06T10:40:29.559Z,33.33
2019-01-06T10:43:17.694Z,31.57
2019-01-06T10:46:04.133Z,50.20
2019-01-06T10:48:50.868Z,39.27
2019-01-06T10:51:45.179Z,36.17
2019-01-06T10:54:31.846Z,34.47
2019-01-06T10:57:29.404Z,32.00
2019-01-06T11:00:23.891Z,32.83
2019-01-06T11:03:14.922Z,31.03
2019-01-06T11:06:08.857Z,40.53
2019-01-06T11:08:55.088Z,37.80
2019-01-06T11:11:49.467Z,32.40
2019-01-06T11:14:37.783Z,44.03
2019-01-06T11:17:31.232Z,36.37
2019-01-06T11:20:17.691Z,32.83
2019-01-06T11:23:18.528Z,30.10
2019-01-06T11:26:05.123Z,36.20
2019-01-06T11:28:59.391Z,35.13
2019-01-06T11:31:49.455Z,33.43
2019-01-06T11:34:40.655Z,33.50
2019-01-06T11:37:31.950Z,34.63
2019-01-06T11:40:18.816Z,35.57
2019-01-06T11:43:25.378Z,30.90
2019-01-06T11:46:12.246Z,27.43
2019-01-06T11:48:59.324Z,45.43
2019-01-06T11:51:47.380Z,29.37
2019-01-06T11:54:44.820Z,31.50
2019-01-06T11:57:31.666Z,34.03
2019-01-06T12:00:12.625Z,25.00
2019-01-06T12:03:05.107Z,28.50
2019-01-06T12:05:53.063Z,25.40
2019-01-06T12:08:48.863Z,30.30
2019-01-06T12:11:47.875Z,24.23
2019-01-06T12:14:53.911Z,32.57
2019-01-06T12:17:41.641Z,26.93
2019-01-06T12:20:36.080Z,41.53
2019-01-06T12:23:39.440Z,31.90
2019-01-06T12:26:16.703Z,31.53
2019-01-06T12:29:05.661Z,31.80
2019-01-06T12:32:09.114Z,34.03
2019-01-06T12:34:57.209Z,35.37
2019-01-06T12:37:57.090Z,24.67
2019-01-06T12:40:50.892Z,27.13
2019-01-06T12:43:41.699Z,30.90
2019-01-06T12:46:41.604Z,30.90
2019-01-06T12:49:28.585Z,29.03
2019-01-06T12:52:16.696Z,38.70
2019-01-06T12:55:05.228Z,29.20
2019-01-06T12:57:52.311Z,25.77
2019-01-06T13:00:41.540Z,34.57
2019-01-06T13:03:47.673Z,29.87
2019-01-06T13:06:34.504Z,29.30
2019-01-06T13:09:28.772Z,37.63
2019-01-06T13:12:19.731Z,33.17
2019-01-06T13:15:08.917Z,38.13
2019-01-06T13:17:55.972Z,40.17
2019-01-06T13:20:35.214Z,35.37
2019-01-06T13:23:26.136Z,46.60
2019-01-06T13:26:06.268Z,36.80
2019-01-06T13:29:09.762Z,32.57
2019-01-06T13:32:00.106Z,36.97
2019-01-06T13:34:54.797Z,41.97
2019-01-06T13:37:48.842Z,30.27
2019-01-06T13:40:40.386Z,36.50
2019-01-06T13:43:27.575Z,36.30
2019-01-06T13:46:25.464Z,39.37
2019-01-06T13:49:12.000Z,33.80
2019-01-06T13:52:00.159Z,42.30
2019-01-06T13:54:53.994Z,30.73
2019-01-06T13:57:44.953Z,31.60
2019-01-06T14:00:33.478Z,43.60
2019-01-06T14:03:21.560Z,41.87
2019-01-06T14:06:07.865Z,38.83
2019-01-06T14:08:58.611Z,36.33
2019-01-06T14:12:01.447Z,38.40
2019-01-06T14:14:48.399Z,39.73
2019-01-06T14:17:34.927Z,45.00
2019-01-06T14:20:32.019Z,52.10
2019-01-06T14:23:18.883Z,35.73
2019-01-06T14:26:09.936Z,43.57
2019-01-06T14:29:00.645Z,38.97
2019-01-06T14:32:03.943Z,34.63
2019-01-06T14:34:55.023Z,38.00
2019-01-06T14:37:41.772Z,38.80
2019-01-06T14:40:28.903Z,37.40
2019-01-06T14:43:16.776Z,37.13
2019-01-06T14:46:03.839Z,39.27
2019-01-06T14:48:51.735Z,38.33
2019-01-06T14:51:58.161Z,37.23
2019-01-06T14:55:00.897Z,33.93
2019-01-06T14:57:51.311Z,39.10
2019-01-06T15:00:38.201Z,28.67
2019-01-06T15:03:35.336Z,30.40
2019-01-06T15:06:26.432Z,30.37
2019-01-06T15:09:12.855Z,36.03
2019-01-06T15:11:58.185Z,33.20
2019-01-06T15:15:13.528Z,34.50
2019-01-06T15:18:00.197Z,37.70
2019-01-06T15:21:05.262Z,34.33
2019-01-06T15:24:01.427Z,37.87
2019-01-06T15:26:49.405Z,40.30
2019-01-06T15:29:36.262Z,38.30
2019-01-06T15:32:38.028Z,30.10
2019-01-06T15:35:24.490Z,29.27
2019-01-06T15:38:19.756Z,35.63
2019-01-06T15:41:17.713Z,40.93
2019-01-06T15:44:11.952Z,28.33
2019-01-06T15:46:53.133Z,34.77
2019-01-06T15:49:42.803Z,28.20
2019-01-06T15:52:30.708Z,25.90
2019-01-06T15:55:19.286Z,26.70
2019-01-06T15:58:09.991Z,30.60
2019-01-06T16:00:56.440Z,43.53
2019-01-06T16:03:44.311Z,36.33
2019-01-06T16:06:30.663Z,33.73
2019-01-06T16:09:13.434Z,33.23
2019-01-06T16:11:54.674Z,29.23
2019-01-06T16:14:44.990Z,35.27
2019-01-06T16:17:32.868Z,25.23
2019-01-06T16:20:26.383Z,27.50
2019-01-06T16:23:23.805Z,35.70
2019-01-06T16:26:23.888Z,34.00
2019-01-06T16:29:10.559Z,30.87
2019-01-06T16:32:02.175Z,26.90
2019-01-06T16:35:04.199Z,26.73
2019-01-06T16:37:50.775Z,34.07
2019-01-06T16:40:47.928Z,32.90
2019-01-06T16:43:33.887Z,32.90
2019-01-06T16:46:26.721Z,35.60
2019-01-06T16:49:21.150Z,27.20
2019-01-06T16:52:07.970Z,33.87
2019-01-06T16:54:55.896Z,37.20
2019-01-06T16:57:43.263Z,35.40
2019-01-06T17:00:38.931Z,35.17
2019-01-06T17:03:33.083Z,34.33
2019-01-06T17:06:12.969Z,34.50
2019-01-06T17:09:03.944Z,40.87
2019-01-06T17:12:10.325Z,40.97
2019-01-06T17:14:57.050Z,40.30
2019-01-06T17:17:51.802Z,41.63
2019-01-06T17:20:38.828Z,39.83
2019-01-06T17:23:25.468Z,40.93
2019-01-06T17:26:13.796Z,49.97
2019-01-06T17:28:58.804Z,38.30
2019-01-06T17:31:45.533Z,47.40
2019-01-06T17:34:39.323Z,32.30
2019-01-06T17:37:29.132Z,40.07
2019-01-06T17:40:32.451Z,50.20
2019-01-06T17:43:19.767Z,47.60
2019-01-06T17:46:10.436Z,38.90
2019-01-06T17:48:56.551Z,57.67
2019-01-06T17:51:48.575Z,42.20
2019-01-06T17:54:40.951Z,44.40
2019-01-06T17:57:27.976Z,44.80
2019-01-06T18:00:28.430Z,54.20
2019-01-06T18:03:28.780Z,38.77
2019-01-06T18:06:15.624Z,44.73
2019-01-06T18:09:02.314Z,56.40
2019-01-06T18:12:05.362Z,56.63
2019-01-06T18:14:52.338Z,45.53
2019-01-06T18:17:36.603Z,53.53
2019-01-06T18:20:24.668Z,56.17
2019-01-06T18:23:09.299Z,57.20
2019-01-06T18:26:15.439Z,53.27
2019-01-06T18:29:09.156Z,61.87
2019-01-06T18:31:55.717Z,44.10
2019-01-06T18:34:51.211Z,46.37
2019-01-06T18:37:39.196Z,44.73
2019-01-06T18:40:29.402Z,48.43
2019-01-06T18:43:26.215Z,44.20
2019-01-06T18:46:12.759Z,46.00
2019-01-06T18:48:59.824Z,48.13
2019-01-06T18:51:50.770Z,48.30
2019-01-06T18:54:45.137Z,52.33
2019-01-06T18:57:36.596Z,48.50
2019-01-06T19:00:24.489Z,56.10
2019-01-06T19:03:10.952Z,54.37
2019-01-06T19:05:57.931Z,51.57
2019-01-06T19:09:04.644Z,55.87
2019-01-06T19:11:55.615Z,56.37
2019-01-06T19:14:46.974Z,53.03
2019-01-06T19:17:53.188Z,52.33
2019-01-06T19:20:39.934Z,47.03
2019-01-06T19:23:26.547Z,50.67
2019-01-06T19:26:13.188Z,53.80
2019-01-06T19:29:16.601Z,45.13
2019-01-06T19:32:07.571Z,46.33
2019-01-06T19:34:56.143Z,43.90
2019-01-06T19:37:47.226Z,45.97
2019-01-06T19:40:43.765Z,47.97
2019-01-06T19:43:44.071Z,44.50
2019-01-06T19:46:43.803Z,45.87
2019-01-06T19:49:41.076Z,44.63
2019-01-06T19:52:41.510Z,46.33
2019-01-06T19:55:35.824Z,37.53
2019-01-06T19:58:22.491Z,39.50
2019-01-06T20:01:09.342Z,37.43
2019-01-06T20:03:54.294Z,41.47
2019-01-06T20:06:45.323Z,38.80
2019-01-06T20:09:26.707Z,44.80
2019-01-06T20:12:23.948Z,34.67
2019-01-06T20:15:16.914Z,35.57
2019-01-06T20:18:03.742Z,32.70
2019-01-06T20:21:07.135Z,41.87
2019-01-06T20:24:05.192Z,35.17
2019-01-06T20:27:08.353Z,47.70
2019-01-06T20:30:08.740Z,32.57
2019-01-06T20:32:57.774Z,36.40
2019-01-06T20:35:44.851Z,38.47
2019-01-06T20:38:33.239Z,37.90
2019-01-06T20:41:16.164Z,39.03
2019-01-06T20:44:00.383Z,31.90
2019-01-06T20:46:48.427Z,38.90
2019-01-06T20:49:36.738Z,35.63
2019-01-06T20:52:41.803Z,39.67
2019-01-06T20:55:24.491Z,50.60
2019-01-06T20:58:24.614Z,44.97
2019-01-06T21:01:11.293Z,40.10
2019-01-06T21:04:02.302Z,52.00
2019-01-06T21:06:42.266Z,41.27
2019-01-06T21:09:23.531Z,47.90
2019-01-06T21:12:10.481Z,41.40
2019-01-06T21:14:57.158Z,42.13
2019-01-06T21:17:44.012Z,55.03
2019-01-06T21:20:35.282Z,47.13
2019-01-06T21:23:42.006Z,45.57
2019-01-06T21:26:29.121Z,47.53
2019-01-06T21:29:11.030Z,57.17
2019-01-06T21:32:02.301Z,45.57
2019-01-06T21:34:53.825Z,60.43
2019-01-06T21:37:40.379Z,49.73
2019-01-06T21:40:28.758Z,54.43
2019-01-06T21:43:31.701Z,48.90
2019-01-06T21:46:20.766Z,56.63
2019-01-06T21:49:07.747Z,55.10
2019-01-06T21:51:58.778Z,54.90
2019-01-06T21:54:45.650Z,49.13
2019-01-06T21:57:33.676Z,52.37
2019-01-06T22:00:21.647Z,50.53
2019-01-06T22:03:08.247Z,59.80
2019-01-06T22:06:02.271Z,59.80
2019-01-06T22:08:52.234Z,59.30
2019-01-06T22:11:39.084Z,57.10
2019-01-06T22:14:27.400Z,54.67
2019-01-06T22:17:18.125Z,47.70
2019-01-06T22:20:06.084Z,74.47
2019-01-06T22:23:12.415Z,54.83
2019-01-06T22:26:06.251Z,50.73
2019-01-06T22:28:53.472Z,53.03
2019-01-06T22:31:56.502Z,50.70
2019-01-06T22:34:51.035Z,62.13
2019-01-06T22:37:42.198Z,64.27
2019-01-06T22:40:36.298Z,57.37
2019-01-06T22:43:32.918Z,56.87
2019-01-06T22:46:32.929Z,50.73
2019-01-06T22:49:19.650Z,60.97
2019-01-06T22:52:17.133Z,51.53
2019-01-06T22:55:03.501Z,53.50
2019-01-06T22:57:57.573Z,47.30
2019-01-06T23:00:47.469Z,49.00
2019-01-06T23:03:35.438Z,54.70
2019-01-06T23:06:21.721Z,44.47
2019-01-06T23:09:12.622Z,55.80
2019-01-06T23:12:09.413Z,46.17
2019-01-06T23:14:55.810Z,55.20
2019-01-06T23:17:40.923Z,48.60
2019-01-06T23:20:37.998Z,58.47
2019-01-06T23:23:41.011Z,44.27
2019-01-06T23:26:34.747Z,56.83
2019-01-06T23:29:34.497Z,60.17
2019-01-06T23:32:22.543Z,58.90
2019-01-06T23:35:04.321Z,53.70
2019-01-06T23:37:51.208Z,54.30
2019-01-06T23:40:48.095Z,42.90
2019-01-06T23:43:34.927Z,57.70
2019-01-06T23:46:21.946Z,54.17
2019-01-06T23:49:17.911Z,54.77
2019-01-06T23:52:05.692Z,79.37
2019-01-06T23:54:52.843Z,58.30
2019-01-06T23:57:31.688Z,60.87
